createdAt,value
2023-04-15T00:01:49.465Z,11.08
2023-04-15T00:04:17.367Z,11.40
2023-04-15T00:06:51.805Z,11.92
2023-04-15T00:09:19.727Z,11.50
2023-04-15T00:11:47.678Z,12.00
2023-04-15T00:14:15.567Z,11.90
2023-04-15T00:16:43.328Z,11.52
2023-04-15T00:19:12.380Z,12.24
2023-04-15T00:21:40.243Z,11.67
2023-04-15T00:24:08.375Z,11.29
2023-04-15T00:26:36.204Z,10.82
2023-04-15T00:29:04.370Z,11.51
2023-04-15T00:31:32.938Z,11.11
2023-04-15T00:34:00.771Z,11.31
2023-04-15T00:36:29.896Z,11.28
2023-04-15T00:38:57.791Z,10.87
2023-04-15T00:41:25.734Z,10.42
2023-04-15T00:43:54.259Z,10.23
2023-04-15T00:46:22.383Z,11.19
2023-04-15T00:48:50.213Z,11.31
2023-04-15T00:51:17.930Z,11.63
2023-04-15T00:53:47.123Z,10.77
2023-04-15T00:56:15.160Z,11.54
2023-04-15T00:58:43.334Z,11.42
2023-04-15T01:01:11.522Z,11.39
2023-04-15T01:03:39.388Z,11.19
2023-04-15T01:06:07.621Z,11.49
2023-04-15T01:08:35.516Z,11.15
2023-04-15T01:11:04.909Z,11.77
2023-04-15T01:13:37.307Z,12.04
2023-04-15T01:16:05.367Z,11.91
2023-04-15T01:18:33.420Z,11.36
2023-04-15T01:21:03.684Z,11.85
2023-04-15T01:23:31.551Z,11.79
2023-04-15T01:26:01.005Z,11.45
2023-04-15T01:28:28.891Z,11.65
2023-04-15T01:31:08.007Z,11.65
2023-04-15T01:33:36.654Z,11.27
2023-04-15T01:36:05.306Z,11.17
2023-04-15T01:38:33.541Z,11.28
2023-04-15T01:41:02.945Z,11.29
2023-04-15T01:43:30.765Z,11.75
2023-04-15T01:45:58.493Z,12.08
2023-04-15T01:48:27.341Z,11.94
2023-04-15T01:50:57.620Z,11.26
2023-04-15T01:53:25.770Z,11.45
2023-04-15T01:55:53.787Z,11.01
2023-04-15T01:58:23.068Z,10.85
2023-04-15T02:00:50.864Z,11.13
2023-04-15T02:03:19.013Z,11.61
2023-04-15T02:05:46.847Z,11.28
2023-04-15T02:08:14.569Z,11.67
2023-04-15T02:10:42.308Z,11.23
2023-04-15T02:13:10.871Z,11.77
2023-04-15T02:15:39.913Z,11.73
2023-04-15T02:18:07.729Z,11.57
2023-04-15T02:20:36.346Z,11.67
2023-04-15T02:23:07.296Z,11.46
2023-04-15T02:25:35.001Z,11.46
2023-04-15T02:28:02.725Z,11.42
2023-04-15T02:30:30.428Z,11.84
2023-04-15T02:32:59.510Z,11.92
2023-04-15T02:35:27.787Z,11.39
2023-04-15T02:37:55.519Z,10.97
2023-04-15T02:40:23.528Z,11.11
2023-04-15T02:42:51.243Z,11.09
2023-04-15T02:45:23.634Z,10.96
2023-04-15T02:47:51.490Z,11.02
2023-04-15T02:50:21.009Z,10.84
2023-04-15T02:52:48.723Z,11.10
2023-04-15T02:55:17.990Z,11.19
2023-04-15T02:57:45.765Z,11.17
2023-04-15T03:00:14.902Z,10.91
2023-04-15T03:02:43.223Z,10.94
2023-04-15T03:05:13.939Z,11.16
2023-04-15T03:07:43.034Z,11.49
2023-04-15T03:10:11.764Z,11.69
2023-04-15T03:12:39.501Z,11.81
2023-04-15T03:15:08.549Z,11.42
2023-04-15T03:17:36.482Z,11.00
2023-04-15T03:20:05.249Z,11.26
2023-04-15T03:22:33.327Z,11.60
2023-04-15T03:25:02.451Z,11.98
2023-04-15T03:27:30.090Z,11.97
2023-04-15T03:29:57.863Z,11.71
2023-04-15T03:32:25.884Z,11.75
2023-04-15T03:34:53.606Z,10.92
2023-04-15T03:37:21.616Z,11.45
2023-04-15T03:39:49.389Z,11.08
2023-04-15T03:42:18.509Z,11.28
2023-04-15T03:44:46.664Z,11.87
2023-04-15T03:47:14.347Z,11.75
2023-04-15T03:49:42.129Z,11.74
2023-04-15T03:52:09.878Z,10.84
2023-04-15T03:54:37.776Z,11.19
2023-04-15T03:57:05.788Z,11.39
2023-04-15T03:59:34.881Z,11.62
2023-04-15T04:02:02.742Z,11.81
2023-04-15T04:04:30.584Z,12.00
2023-04-15T04:06:58.321Z,11.42
2023-04-15T04:09:25.981Z,11.69
2023-04-15T04:11:53.652Z,11.24
2023-04-15T04:14:21.411Z,11.16
2023-04-15T04:16:50.857Z,11.23
2023-04-15T04:19:19.966Z,11.18
2023-04-15T04:21:47.772Z,11.04
2023-04-15T04:24:15.799Z,11.51
2023-04-15T04:26:43.653Z,11.89
2023-04-15T04:29:11.640Z,11.35
2023-04-15T04:31:39.611Z,11.46
2023-04-15T04:34:08.752Z,11.75
2023-04-15T04:36:36.657Z,11.76
2023-04-15T04:39:04.594Z,11.70
2023-04-15T04:41:32.344Z,11.66
2023-04-15T04:44:00.204Z,11.41
2023-04-15T04:46:27.956Z,11.33
2023-04-15T04:48:55.852Z,11.44
2023-04-15T04:51:26.389Z,11.60
2023-04-15T04:53:54.192Z,11.33
2023-04-15T04:56:21.922Z,11.09
2023-04-15T04:58:49.622Z,11.30
2023-04-15T05:01:17.453Z,11.49
2023-04-15T05:03:45.558Z,11.64
2023-04-15T05:06:13.415Z,11.70
2023-04-15T05:08:42.561Z,11.96
2023-04-15T05:11:10.296Z,11.46
2023-04-15T05:13:39.108Z,11.88
2023-04-15T05:16:07.568Z,11.75
2023-04-15T05:18:35.297Z,11.23
2023-04-15T05:21:03.790Z,11.61
2023-04-15T05:23:31.544Z,11.73
2023-04-15T05:26:00.678Z,11.58
2023-04-15T05:28:28.444Z,11.61
2023-04-15T05:30:56.389Z,11.50
2023-04-15T05:33:24.423Z,11.36
2023-04-15T05:35:52.116Z,11.37
2023-04-15T05:38:19.823Z,11.32
2023-04-15T05:40:47.531Z,10.70
2023-04-15T05:43:16.615Z,11.34
2023-04-15T05:45:44.375Z,11.42
2023-04-15T05:48:12.081Z,11.44
2023-04-15T05:50:42.165Z,11.74
2023-04-15T05:53:09.981Z,11.52
2023-04-15T05:55:37.721Z,10.67
2023-04-15T05:58:05.386Z,11.36
2023-04-15T06:00:34.606Z,11.47
2023-04-15T06:03:02.445Z,11.44
2023-04-15T06:05:30.232Z,11.30
2023-04-15T06:07:57.910Z,11.32
2023-04-15T06:10:25.751Z,11.18
2023-04-15T06:12:54.141Z,11.43
2023-04-15T06:15:22.094Z,11.46
2023-04-15T06:17:51.489Z,11.57
2023-04-15T06:20:19.474Z,11.80
2023-04-15T06:22:47.213Z,11.73
2023-04-15T06:25:15.130Z,11.58
2023-04-15T06:27:42.814Z,11.84
2023-04-15T06:30:11.332Z,11.89
2023-04-15T06:32:39.316Z,11.46
2023-04-15T06:35:09.000Z,11.45
2023-04-15T06:37:36.719Z,11.96
2023-04-15T06:40:05.215Z,11.37
2023-04-15T06:42:34.024Z,10.83
2023-04-15T06:45:01.884Z,11.21
2023-04-15T06:47:29.669Z,11.21
2023-04-15T06:49:57.375Z,11.42
2023-04-15T06:52:26.464Z,11.77
2023-04-15T06:54:54.173Z,11.81
2023-04-15T06:57:21.953Z,11.77
2023-04-15T06:59:49.627Z,11.04
2023-04-15T07:02:17.477Z,11.21
2023-04-15T07:04:45.211Z,11.49
2023-04-15T07:07:13.382Z,11.43
2023-04-15T07:09:42.862Z,11.04
2023-04-15T07:12:10.554Z,11.13
2023-04-15T07:14:38.208Z,10.64
2023-04-15T07:17:06.044Z,11.10
2023-04-15T07:19:33.769Z,10.59
2023-04-15T07:22:02.248Z,10.92
2023-04-15T07:24:30.139Z,11.00
2023-04-15T07:27:00.862Z,11.29
2023-04-15T07:29:29.065Z,10.60
2023-04-15T07:31:57.325Z,11.11
2023-04-15T07:34:25.128Z,11.52
2023-04-15T07:36:52.812Z,11.56
2023-04-15T07:39:20.530Z,11.42
2023-04-15T07:41:49.043Z,10.67
2023-04-15T07:44:18.140Z,11.00
2023-04-15T07:46:46.061Z,10.69
2023-04-15T07:49:14.505Z,10.75
2023-04-15T07:51:42.218Z,10.30
2023-04-15T07:54:10.035Z,10.61
2023-04-15T07:56:37.864Z,10.96
2023-04-15T07:59:06.527Z,10.60
2023-04-15T08:01:35.758Z,11.04
2023-04-15T08:04:03.836Z,11.54
2023-04-15T08:06:33.000Z,11.88
2023-04-15T08:09:01.091Z,10.63
2023-04-15T08:11:29.187Z,11.18
2023-04-15T08:13:56.942Z,10.95
2023-04-15T08:16:25.995Z,10.98
2023-04-15T08:18:57.659Z,11.23
2023-04-15T08:21:25.850Z,10.83
2023-04-15T08:23:54.477Z,11.05
2023-04-15T08:26:22.802Z,10.70
2023-04-15T08:28:51.221Z,11.19
2023-04-15T08:31:20.183Z,11.47
2023-04-15T08:33:48.023Z,11.73
2023-04-15T08:36:17.634Z,11.89
2023-04-15T08:38:46.205Z,11.11
2023-04-15T08:41:22.817Z,11.41
2023-04-15T08:43:54.793Z,11.86
2023-04-15T08:46:23.153Z,10.96
2023-04-15T08:48:51.384Z,11.03
2023-04-15T08:51:23.772Z,11.80
2023-04-15T08:53:52.750Z,11.16
2023-04-15T08:56:23.275Z,12.07
2023-04-15T08:58:52.205Z,11.94
2023-04-15T09:01:20.467Z,12.20
2023-04-15T09:03:50.209Z,11.63
2023-04-15T09:06:18.564Z,11.49
2023-04-15T09:08:47.628Z,11.59
2023-04-15T09:11:15.414Z,12.09
2023-04-15T09:13:43.154Z,11.68
2023-04-15T09:16:11.124Z,11.37
2023-04-15T09:18:40.005Z,11.92
2023-04-15T09:21:09.415Z,12.19
2023-04-15T09:23:37.321Z,12.11
2023-04-15T09:26:07.116Z,12.14
2023-04-15T09:28:42.278Z,12.45
2023-04-15T09:31:10.580Z,12.29
2023-04-15T09:33:56.155Z,11.73
2023-04-15T09:36:25.127Z,11.71
2023-04-15T09:38:57.392Z,11.92
2023-04-15T09:41:26.771Z,11.62
2023-04-15T09:43:54.528Z,12.36
2023-04-15T09:46:22.617Z,12.63
2023-04-15T09:49:08.757Z,12.07
2023-04-15T09:51:37.406Z,13.00
2023-04-15T09:54:05.215Z,12.72
2023-04-15T09:56:37.816Z,13.48
2023-04-15T09:59:06.404Z,13.26
2023-04-15T10:01:34.363Z,12.27
2023-04-15T10:04:05.224Z,12.43
2023-04-15T10:06:33.574Z,12.99
2023-04-15T10:09:01.968Z,12.69
2023-04-15T10:11:31.819Z,13.28
2023-04-15T10:14:02.242Z,13.27
2023-04-15T10:16:31.503Z,13.52
2023-04-15T10:19:02.420Z,13.32
2023-04-15T10:21:32.176Z,13.86
2023-04-15T10:24:02.382Z,13.49
2023-04-15T10:26:30.981Z,14.12
2023-04-15T10:29:00.116Z,13.61
2023-04-15T10:31:30.834Z,13.53
2023-04-15T10:34:04.097Z,12.93
2023-04-15T10:36:32.196Z,14.06
2023-04-15T10:39:18.477Z,14.83
2023-04-15T10:41:46.368Z,15.12
2023-04-15T10:44:14.077Z,15.10
2023-04-15T10:46:44.525Z,14.53
2023-04-15T10:49:13.730Z,15.06
2023-04-15T10:51:42.970Z,15.06
2023-04-15T10:54:15.127Z,14.74
2023-04-15T10:56:43.951Z,14.16
2023-04-15T10:59:12.011Z,14.64
2023-04-15T11:01:54.308Z,14.99
2023-04-15T11:04:57.492Z,14.78
2023-04-15T11:07:38.787Z,13.80
2023-04-15T11:10:51.508Z,14.16
2023-04-15T11:13:22.878Z,14.86
2023-04-15T11:15:51.909Z,14.84
2023-04-15T11:18:22.594Z,15.38
2023-04-15T11:20:52.131Z,15.11
2023-04-15T11:23:21.290Z,16.05
2023-04-15T11:25:49.458Z,16.73
2023-04-15T11:28:17.303Z,15.91
2023-04-15T11:30:45.499Z,16.62
2023-04-15T11:33:14.103Z,16.96
2023-04-15T11:35:44.049Z,15.31
2023-04-15T11:38:13.682Z,16.25
2023-04-15T11:40:43.807Z,16.28
2023-04-15T11:43:15.959Z,16.81
2023-04-15T11:45:52.666Z,16.07
2023-04-15T11:48:22.097Z,16.71
2023-04-15T11:50:56.937Z,16.46
2023-04-15T11:53:26.021Z,15.55
2023-04-15T11:55:54.888Z,15.50
2023-04-15T11:58:24.437Z,15.12
2023-04-15T12:00:54.158Z,15.38
2023-04-15T12:03:27.877Z,15.34
2023-04-15T12:06:19.227Z,14.80
2023-04-15T12:09:08.493Z,14.54
2023-04-15T12:11:42.495Z,14.33
2023-04-15T12:14:17.656Z,15.18
2023-04-15T12:16:49.941Z,14.57
2023-04-15T12:19:25.859Z,14.42
2023-04-15T12:22:00.708Z,14.28
2023-04-15T12:24:29.044Z,15.38
2023-04-15T12:26:58.301Z,15.15
2023-04-15T12:29:28.703Z,15.21
2023-04-15T12:31:58.239Z,14.67
2023-04-15T12:34:30.663Z,15.20
2023-04-15T12:37:01.369Z,15.87
2023-04-15T12:39:31.394Z,15.50
2023-04-15T12:42:00.215Z,15.31
2023-04-15T12:44:28.917Z,15.25
2023-04-15T12:46:57.029Z,14.89
2023-04-15T12:49:25.637Z,14.76
2023-04-15T12:51:54.817Z,15.42
2023-04-15T12:54:23.996Z,15.12
2023-04-15T12:56:52.765Z,14.62
2023-04-15T12:59:20.554Z,14.93
2023-04-15T13:01:49.127Z,15.21
2023-04-15T13:04:17.449Z,15.20
2023-04-15T13:06:45.404Z,15.32
2023-04-15T13:09:13.149Z,15.36
2023-04-15T13:11:42.267Z,15.21
2023-04-15T13:14:11.603Z,15.83
2023-04-15T13:16:39.859Z,15.86
2023-04-15T13:19:07.983Z,14.95
2023-04-15T13:21:36.351Z,14.97
2023-04-15T13:24:07.140Z,15.25
2023-04-15T13:26:35.141Z,14.80
2023-04-15T13:29:04.579Z,15.73
2023-04-15T13:31:32.525Z,16.20
2023-04-15T13:34:01.671Z,15.80
2023-04-15T13:36:29.486Z,15.48
2023-04-15T13:38:57.821Z,15.99
2023-04-15T13:41:25.660Z,15.86
2023-04-15T13:43:53.421Z,15.95
2023-04-15T13:46:22.562Z,16.20
2023-04-15T13:48:50.287Z,15.47
2023-04-15T13:51:18.053Z,16.01
2023-04-15T13:53:45.775Z,15.80
2023-04-15T13:56:13.505Z,16.06
2023-04-15T13:58:42.399Z,15.83
2023-04-15T14:01:10.237Z,15.75
2023-04-15T14:03:39.514Z,16.32
2023-04-15T14:06:07.943Z,16.10
2023-04-15T14:08:35.706Z,16.19
2023-04-15T14:11:03.618Z,16.16
2023-04-15T14:13:31.404Z,16.20
2023-04-15T14:15:59.337Z,16.36
2023-04-15T14:18:27.249Z,16.46
2023-04-15T14:20:56.306Z,17.17
2023-04-15T14:23:24.658Z,16.53
2023-04-15T14:25:52.773Z,16.36
2023-04-15T14:28:20.473Z,16.39
2023-04-15T14:30:48.281Z,16.58
2023-04-15T14:33:16.227Z,16.34
2023-04-15T14:35:44.062Z,16.55
2023-04-15T14:38:13.281Z,17.20
2023-04-15T14:40:42.405Z,16.60
2023-04-15T14:43:10.205Z,16.35
2023-04-15T14:45:41.836Z,15.95
2023-04-15T14:48:12.721Z,15.88
2023-04-15T14:50:41.359Z,15.41
2023-04-15T14:53:09.127Z,16.03
2023-04-15T14:55:38.292Z,16.41
2023-04-15T14:58:06.105Z,16.33
2023-04-15T15:00:34.246Z,17.28
2023-04-15T15:03:02.168Z,15.94
2023-04-15T15:05:30.170Z,16.05
2023-04-15T15:07:57.989Z,15.55
2023-04-15T15:10:32.685Z,15.26
2023-04-15T15:13:14.484Z,16.00
2023-04-15T15:15:42.347Z,15.92
2023-04-15T15:18:10.265Z,16.36
2023-04-15T15:20:38.203Z,15.92
2023-04-15T15:23:05.879Z,16.76
2023-04-15T15:25:33.595Z,16.22
2023-04-15T15:28:01.246Z,16.03
2023-04-15T15:30:30.616Z,15.35
2023-04-15T15:32:58.399Z,16.02
2023-04-15T15:35:26.975Z,15.98
2023-04-15T15:37:55.005Z,16.03
2023-04-15T15:40:22.837Z,16.09
2023-04-15T15:42:51.055Z,15.75
2023-04-15T15:45:19.054Z,15.50
2023-04-15T15:47:48.538Z,15.24
2023-04-15T15:50:16.386Z,15.47
2023-04-15T15:52:44.206Z,15.56
2023-04-15T15:55:11.981Z,15.13
2023-04-15T15:57:39.663Z,16.29
2023-04-15T16:00:12.131Z,15.98
2023-04-15T16:05:12.669Z,15.65
2023-04-15T16:07:40.493Z,16.26
2023-04-15T16:10:09.266Z,15.16
2023-04-15T16:12:37.052Z,16.24
2023-04-15T16:15:05.333Z,15.66
2023-04-15T16:17:33.739Z,15.67
2023-04-15T16:20:05.394Z,15.96
2023-04-15T16:22:35.909Z,15.57
2023-04-15T16:25:03.811Z,14.94
2023-04-15T16:27:31.638Z,14.93
2023-04-15T16:29:59.394Z,15.03
2023-04-15T16:32:27.484Z,15.16
2023-04-15T16:34:55.340Z,14.91
2023-04-15T16:37:23.160Z,14.64
2023-04-15T16:39:52.299Z,14.56
2023-04-15T16:42:20.084Z,15.12
2023-04-15T16:44:47.830Z,15.15
2023-04-15T16:47:15.520Z,14.63
2023-04-15T16:49:43.439Z,15.35
2023-04-15T16:52:11.330Z,14.11
2023-04-15T16:54:41.401Z,14.78
2023-04-15T16:57:10.614Z,14.87
2023-04-15T16:59:39.151Z,14.57
2023-04-15T17:02:07.294Z,14.53
2023-04-15T17:04:35.913Z,14.14
2023-04-15T17:07:04.109Z,14.28
2023-04-15T17:09:31.851Z,14.76
2023-04-15T17:11:59.573Z,14.16
2023-04-15T17:14:29.631Z,14.52
2023-04-15T17:16:57.360Z,13.97
2023-04-15T17:19:26.730Z,14.08
2023-04-15T17:21:55.185Z,14.61
2023-04-15T17:24:23.203Z,14.78
2023-04-15T17:26:51.031Z,15.04
2023-04-15T17:29:18.761Z,14.91
2023-04-15T17:31:47.833Z,14.70
2023-04-15T17:34:16.169Z,14.77
2023-04-15T17:36:44.282Z,14.61
2023-04-15T17:39:14.039Z,14.96
2023-04-15T17:41:41.768Z,14.83
2023-04-15T17:44:09.521Z,14.54
2023-04-15T17:46:37.327Z,14.81
2023-04-15T17:49:06.774Z,14.28
2023-04-15T17:51:34.743Z,13.98
2023-04-15T17:54:02.590Z,14.09
2023-04-15T17:56:30.548Z,14.10
2023-04-15T17:58:58.852Z,14.24
2023-04-15T18:01:26.597Z,14.20
2023-04-15T18:03:54.624Z,14.58
2023-04-15T18:06:24.085Z,13.89
2023-04-15T18:08:52.690Z,13.84
2023-04-15T18:11:20.487Z,14.27
2023-04-15T18:13:48.158Z,13.97
2023-04-15T18:16:16.142Z,13.31
2023-04-15T18:18:44.019Z,13.96
2023-04-15T18:21:13.715Z,13.96
2023-04-15T18:23:43.027Z,13.45
2023-04-15T18:26:11.060Z,13.56
2023-04-15T18:28:39.823Z,13.72
2023-04-15T18:31:07.574Z,14.58
2023-04-15T18:33:35.958Z,14.05
2023-04-15T18:36:03.994Z,13.50
2023-04-15T18:38:32.010Z,14.22
2023-04-15T18:41:01.107Z,13.90
2023-04-15T18:43:28.873Z,13.06
2023-04-15T18:45:56.719Z,13.83
2023-04-15T18:48:24.572Z,14.12
2023-04-15T18:50:54.108Z,13.68
2023-04-15T18:53:22.069Z,12.99
2023-04-15T18:55:49.820Z,13.00
2023-04-15T18:58:18.890Z,13.00
2023-04-15T19:00:46.668Z,13.38
2023-04-15T19:03:14.736Z,13.35
2023-04-15T19:05:42.604Z,12.55
2023-04-15T19:08:11.242Z,13.78
2023-04-15T19:10:39.636Z,13.12
2023-04-15T19:13:07.472Z,12.91
2023-04-15T19:15:36.635Z,12.76
2023-04-15T19:18:10.322Z,12.68
2023-04-15T19:20:40.011Z,12.64
2023-04-15T19:23:08.364Z,13.58
2023-04-15T19:25:36.101Z,12.94
2023-04-15T19:28:03.889Z,13.08
2023-04-15T19:30:33.017Z,12.12
2023-04-15T19:33:02.221Z,12.68
2023-04-15T19:35:30.033Z,12.78
2023-04-15T19:37:57.888Z,12.90
2023-04-15T19:40:25.959Z,12.76
2023-04-15T19:42:53.688Z,12.67
2023-04-15T19:45:21.410Z,13.00
2023-04-15T19:47:49.330Z,12.60
2023-04-15T19:50:24.583Z,12.30
2023-04-15T19:52:52.465Z,13.04
2023-04-15T19:55:20.429Z,12.58
2023-04-15T19:57:48.179Z,13.13
2023-04-15T20:00:16.318Z,12.57
2023-04-15T20:02:44.072Z,12.81
2023-04-15T20:05:12.659Z,12.79
2023-04-15T20:07:42.568Z,12.30
2023-04-15T20:10:13.250Z,12.41
2023-04-15T20:12:49.256Z,12.19
2023-04-15T20:15:20.926Z,12.40
2023-04-15T20:17:48.675Z,12.92
2023-04-15T20:20:16.654Z,12.62
2023-04-15T20:22:45.714Z,12.76
2023-04-15T20:25:13.728Z,13.30
2023-04-15T20:27:41.477Z,12.99
2023-04-15T20:30:10.302Z,13.42
2023-04-15T20:32:38.752Z,13.20
2023-04-15T20:35:07.868Z,12.76
2023-04-15T20:37:36.263Z,12.98
2023-04-15T20:40:08.967Z,12.81
2023-04-15T20:42:36.682Z,11.71
2023-04-15T20:45:07.087Z,12.26
2023-04-15T20:47:34.817Z,11.40
2023-04-15T20:50:02.668Z,11.70
2023-04-15T20:52:30.457Z,11.90
2023-04-15T20:54:58.251Z,12.38
2023-04-15T20:57:28.796Z,12.53
2023-04-15T20:59:56.781Z,12.39
2023-04-15T21:02:24.971Z,11.67
2023-04-15T21:04:52.935Z,12.70
2023-04-15T21:07:20.732Z,12.83
2023-04-15T21:09:49.236Z,11.89
2023-04-15T21:12:17.169Z,12.36
2023-04-15T21:14:46.345Z,11.67
2023-04-15T21:17:14.224Z,12.07
2023-04-15T21:19:42.289Z,11.97
2023-04-15T21:22:10.186Z,11.18
2023-04-15T21:24:38.086Z,11.54
2023-04-15T21:27:06.176Z,11.41
2023-04-15T21:29:33.974Z,11.80
2023-04-15T21:32:03.302Z,12.21
2023-04-15T21:34:30.965Z,12.38
2023-04-15T21:36:58.685Z,12.02
2023-04-15T21:39:26.434Z,11.74
2023-04-15T21:41:54.255Z,11.47
2023-04-15T21:44:22.188Z,11.60
2023-04-15T21:46:51.530Z,11.24
2023-04-15T21:49:21.833Z,11.39
2023-04-15T21:51:50.398Z,10.88
2023-04-15T21:54:18.278Z,11.94
2023-04-15T21:56:46.052Z,10.86
2023-04-15T21:59:13.786Z,11.66
2023-04-15T22:01:41.544Z,11.66
2023-04-15T22:04:10.918Z,11.37
2023-04-15T22:06:40.700Z,10.94
2023-04-15T22:09:08.538Z,12.06
2023-04-15T22:11:36.306Z,11.89
2023-04-15T22:14:05.944Z,12.20
2023-04-15T22:16:33.732Z,10.87
2023-04-15T22:19:02.647Z,11.14
2023-04-15T22:21:30.486Z,10.62
2023-04-15T22:24:32.602Z,11.24
2023-04-15T22:26:47.249Z,10.98
2023-04-15T22:29:15.020Z,11.10
2023-04-15T22:31:42.872Z,11.38
2023-04-15T22:34:10.555Z,10.93
2023-04-15T22:36:38.531Z,11.34
2023-04-15T22:39:07.794Z,11.46
2023-04-15T22:41:35.580Z,11.44
2023-04-15T22:44:03.264Z,11.33
2023-04-15T22:46:31.258Z,10.82
2023-04-15T22:48:58.999Z,10.47
2023-04-15T22:51:28.030Z,11.18
2023-04-15T22:53:56.509Z,11.62
2023-04-15T22:56:25.587Z,11.72
2023-04-15T22:58:53.506Z,11.02
2023-04-15T23:01:21.463Z,10.50
2023-04-15T23:03:55.611Z,11.08
2023-04-15T23:06:27.294Z,10.95
2023-04-15T23:08:55.334Z,11.22
2023-04-15T23:11:23.076Z,11.14
2023-04-15T23:13:53.067Z,10.54
2023-04-15T23:16:20.973Z,11.22
2023-04-15T23:18:48.726Z,11.57
2023-04-15T23:21:17.022Z,11.18
2023-04-15T23:23:44.688Z,11.24
2023-04-15T23:26:12.341Z,11.84
2023-04-15T23:28:40.109Z,12.14
2023-04-15T23:31:09.168Z,11.15
2023-04-15T23:33:38.108Z,11.11
2023-04-15T23:36:06.701Z,10.12
2023-04-15T23:38:34.411Z,10.92
2023-04-15T23:41:02.171Z,10.16
2023-04-15T23:43:29.997Z,11.20
2023-04-15T23:45:57.722Z,10.88
2023-04-15T23:48:26.823Z,10.42
2023-04-15T23:50:54.537Z,10.45
2023-04-15T23:53:22.242Z,11.42
2023-04-15T23:55:49.930Z,11.38
2023-04-15T23:58:17.637Z,10.22
